createdAt,value
2017-05-22T00:01:29.253Z,50.40
2017-05-22T00:03:56.620Z,49.00
2017-05-22T00:06:23.964Z,50.50
2017-05-22T00:08:51.406Z,49.30
2017-05-22T00:11:18.758Z,50.10
2017-05-22T00:13:46.138Z,50.80
2017-05-22T00:16:13.461Z,49.10
2017-05-22T00:18:40.826Z,49.90
2017-05-22T00:21:08.285Z,50.80
2017-05-22T00:23:35.741Z,51.60
2017-05-22T00:26:03.098Z,50.60
2017-05-22T00:28:30.551Z,50.30
2017-05-22T00:30:57.993Z,50.70
2017-05-22T00:33:25.230Z,50.70
2017-05-22T00:35:52.622Z,50.80
2017-05-22T00:38:19.959Z,51.40
2017-05-22T00:40:47.509Z,50.20
2017-05-22T00:43:14.821Z,51.30
2017-05-22T00:45:42.138Z,52.20
2017-05-22T00:48:09.446Z,51.30
2017-05-22T00:50:36.834Z,50.20
2017-05-22T00:53:04.394Z,51.40
2017-05-22T00:55:31.730Z,50.70
2017-05-22T00:57:58.997Z,51.90
2017-05-22T01:00:26.441Z,52.00
2017-05-22T01:02:54.007Z,52.60
2017-05-22T01:05:21.417Z,52.50
2017-05-22T01:07:48.814Z,51.40
2017-05-22T01:10:16.272Z,51.40
2017-05-22T01:12:43.717Z,51.40
2017-05-22T01:15:11.199Z,51.40
2017-05-22T01:17:38.651Z,52.40
2017-05-22T01:20:06.237Z,52.40
2017-05-22T01:22:33.547Z,52.10
2017-05-22T01:25:00.869Z,51.70
2017-05-22T01:27:28.245Z,52.30
2017-05-22T01:29:55.713Z,52.70
2017-05-22T01:32:30.050Z,52.00
2017-05-22T01:34:57.375Z,52.50
2017-05-22T01:37:24.861Z,51.60
2017-05-22T01:39:52.312Z,51.60
2017-05-22T01:42:19.882Z,51.20
2017-05-22T01:44:47.339Z,51.60
2017-05-22T01:47:14.664Z,51.60
2017-05-22T01:49:42.234Z,51.80
2017-05-22T01:52:09.599Z,51.80
2017-05-22T01:54:37.129Z,51.80
2017-05-22T01:57:04.377Z,51.80
2017-05-22T01:59:31.833Z,50.60
2017-05-22T02:01:59.278Z,51.20
2017-05-22T02:04:26.640Z,52.40
2017-05-22T02:06:53.998Z,51.70
2017-05-22T02:09:21.469Z,51.00
2017-05-22T02:11:48.906Z,51.80
2017-05-22T02:14:16.383Z,50.50
2017-05-22T02:16:43.714Z,50.50
2017-05-22T02:19:11.184Z,51.00
2017-05-22T02:21:38.566Z,51.20
2017-05-22T02:24:06.009Z,51.90
2017-05-22T02:26:33.406Z,51.80
2017-05-22T02:29:00.682Z,51.50
2017-05-22T02:31:28.020Z,50.40
2017-05-22T02:33:55.393Z,50.70
2017-05-22T02:36:22.650Z,50.40
2017-05-22T02:38:50.114Z,50.50
2017-05-22T02:41:17.684Z,50.30
2017-05-22T02:43:45.226Z,49.80
2017-05-22T02:46:12.679Z,50.20
2017-05-22T02:48:39.993Z,50.90
2017-05-22T02:51:07.380Z,51.90
2017-05-22T02:53:35.049Z,51.20
2017-05-22T02:56:02.494Z,51.30
2017-05-22T02:58:29.865Z,53.00
2017-05-22T03:00:57.199Z,51.40
2017-05-22T03:03:24.777Z,51.20
2017-05-22T03:05:52.311Z,52.00
2017-05-22T03:08:19.982Z,51.60
2017-05-22T03:10:47.235Z,51.30
2017-05-22T03:13:14.678Z,52.70
2017-05-22T03:15:41.887Z,52.60
2017-05-22T03:18:09.182Z,51.80
2017-05-22T03:20:36.577Z,52.40
2017-05-22T03:23:03.979Z,52.30
2017-05-22T03:25:31.361Z,52.50
2017-05-22T03:27:58.933Z,51.60
2017-05-22T03:30:26.289Z,52.60
2017-05-22T03:32:53.748Z,52.20
2017-05-22T03:35:21.311Z,52.50
2017-05-22T03:37:48.833Z,52.20
2017-05-22T03:40:16.085Z,51.80
2017-05-22T03:42:43.338Z,52.30
2017-05-22T03:45:10.802Z,53.00
2017-05-22T03:47:38.150Z,52.70
2017-05-22T03:50:05.617Z,52.70
2017-05-22T03:52:32.946Z,52.10
2017-05-22T03:55:00.397Z,53.20
2017-05-22T03:57:27.658Z,52.60
2017-05-22T03:59:54.913Z,52.20
2017-05-22T04:02:22.244Z,51.90
2017-05-22T04:04:49.923Z,53.50
2017-05-22T04:07:17.383Z,52.90
2017-05-22T04:09:44.854Z,52.10
2017-05-22T04:12:12.278Z,52.40
2017-05-22T04:14:39.619Z,53.00
2017-05-22T04:17:06.758Z,53.50
2017-05-22T04:19:34.253Z,53.30
2017-05-22T04:22:01.594Z,53.10
2017-05-22T04:24:28.917Z,53.90
2017-05-22T04:26:56.410Z,53.90
2017-05-22T04:29:23.702Z,54.70
2017-05-22T04:31:51.118Z,53.10
2017-05-22T04:34:18.481Z,53.80
2017-05-22T04:36:45.810Z,53.10
2017-05-22T04:39:12.957Z,53.50
2017-05-22T04:41:47.918Z,53.40
2017-05-22T04:44:15.421Z,53.00
2017-05-22T04:46:42.737Z,53.40
2017-05-22T04:49:10.150Z,53.90
2017-05-22T04:51:37.422Z,52.90
2017-05-22T04:54:04.894Z,52.80
2017-05-22T04:56:32.328Z,53.10
2017-05-22T04:58:59.678Z,52.50
2017-05-22T05:01:27.146Z,51.60
2017-05-22T05:03:54.706Z,49.70
2017-05-22T05:06:22.154Z,49.40
2017-05-22T05:08:49.412Z,48.50
2017-05-22T05:11:16.845Z,47.30
2017-05-22T05:13:44.243Z,46.80
2017-05-22T05:16:11.689Z,46.50
2017-05-22T05:18:39.198Z,45.10
2017-05-22T05:21:06.678Z,46.60
2017-05-22T05:23:34.137Z,45.10
2017-05-22T05:26:01.620Z,44.20
2017-05-22T05:28:29.038Z,43.90
2017-05-22T05:30:56.435Z,42.70
2017-05-22T05:33:23.967Z,42.10
2017-05-22T05:35:51.469Z,41.90
2017-05-22T05:38:18.759Z,40.70
2017-05-22T05:40:46.450Z,41.00
2017-05-22T05:43:13.831Z,39.70
2017-05-22T05:45:41.321Z,41.30
2017-05-22T05:48:08.703Z,39.60
2017-05-22T05:50:36.020Z,40.10
2017-05-22T05:53:03.302Z,40.40
2017-05-22T05:55:30.867Z,39.80
2017-05-22T05:57:58.221Z,41.40
2017-05-22T06:00:25.725Z,40.50
2017-05-22T06:02:53.072Z,40.90
2017-05-22T06:05:20.557Z,41.60
2017-05-22T06:07:47.862Z,40.70
2017-05-22T06:10:15.362Z,40.30
2017-05-22T06:12:42.926Z,41.60
2017-05-22T06:15:10.287Z,40.80
2017-05-22T06:17:37.542Z,41.30
2017-05-22T06:20:04.877Z,40.00
2017-05-22T06:22:32.337Z,39.40
2017-05-22T06:24:59.741Z,39.90
2017-05-22T06:27:27.164Z,40.30
2017-05-22T06:29:54.665Z,38.30
2017-05-22T06:32:22.098Z,40.50
2017-05-22T06:34:49.553Z,40.10
2017-05-22T06:37:17.009Z,39.60
2017-05-22T06:39:44.344Z,39.10
2017-05-22T06:42:11.457Z,38.90
2017-05-22T06:44:38.678Z,39.40
2017-05-22T06:47:05.953Z,38.00
2017-05-22T06:49:33.357Z,37.20
2017-05-22T06:52:00.741Z,36.90
2017-05-22T06:54:28.165Z,36.40
2017-05-22T06:56:55.483Z,34.90
2017-05-22T06:59:22.868Z,37.20
2017-05-22T07:01:50.219Z,35.00
2017-05-22T07:04:17.778Z,35.20
2017-05-22T07:06:45.241Z,35.60
2017-05-22T07:09:12.711Z,34.80
2017-05-22T07:11:40.018Z,35.10
2017-05-22T07:14:07.444Z,34.20
2017-05-22T07:16:34.753Z,35.00
2017-05-22T07:19:02.115Z,33.50
2017-05-22T07:21:29.665Z,34.80
2017-05-22T07:23:56.984Z,35.10
2017-05-22T07:26:24.157Z,34.50
2017-05-22T07:28:51.719Z,34.40
2017-05-22T07:31:19.214Z,35.10
2017-05-22T07:33:53.242Z,34.60
2017-05-22T07:36:20.372Z,32.90
2017-05-22T07:38:47.382Z,33.70
2017-05-22T07:41:14.381Z,33.10
2017-05-22T07:43:41.434Z,33.50
2017-05-22T07:46:08.422Z,31.80
2017-05-22T07:48:35.438Z,30.70
2017-05-22T07:51:02.438Z,30.20
2017-05-22T07:53:29.506Z,30.30
2017-05-22T07:55:56.509Z,29.90
2017-05-22T07:58:23.514Z,30.00
2017-05-22T08:00:50.510Z,30.50
2017-05-22T08:03:17.838Z,30.30
2017-05-22T08:05:45.078Z,29.70
2017-05-22T08:08:12.339Z,31.40
2017-05-22T08:10:39.715Z,29.50
2017-05-22T08:13:07.146Z,29.50
2017-05-22T08:15:34.617Z,29.90
2017-05-22T08:18:01.859Z,29.40
2017-05-22T08:20:29.333Z,31.30
2017-05-22T08:22:56.870Z,29.90
2017-05-22T08:25:24.145Z,29.80
2017-05-22T08:27:51.401Z,29.90
2017-05-22T08:30:18.635Z,31.00
2017-05-22T08:32:46.213Z,29.50
2017-05-22T08:35:13.642Z,29.20
2017-05-22T08:37:41.146Z,29.20
2017-05-22T08:40:08.662Z,28.70
2017-05-22T08:42:36.105Z,28.80
2017-05-22T08:45:03.590Z,28.50
2017-05-22T08:47:31.020Z,28.80
2017-05-22T08:49:58.349Z,28.50
2017-05-22T08:52:25.617Z,28.40
2017-05-22T08:54:53.126Z,28.10
2017-05-22T08:57:20.505Z,28.50
2017-05-22T08:59:47.798Z,28.50
2017-05-22T09:02:15.246Z,27.70
2017-05-22T09:04:42.540Z,28.40
2017-05-22T09:07:09.890Z,26.60
2017-05-22T09:09:37.319Z,25.70
2017-05-22T09:12:04.650Z,25.90
2017-05-22T09:14:32.117Z,26.40
2017-05-22T09:16:59.470Z,26.50
2017-05-22T09:19:26.784Z,25.80
2017-05-22T09:21:54.271Z,26.40
2017-05-22T09:24:21.547Z,24.90
2017-05-22T09:26:48.982Z,24.50
2017-05-22T09:29:16.554Z,24.50
2017-05-22T09:31:43.982Z,24.30
2017-05-22T09:34:11.449Z,24.40
2017-05-22T09:36:38.881Z,24.30
2017-05-22T09:39:06.270Z,25.50
2017-05-22T09:41:33.482Z,26.70
2017-05-22T09:44:07.873Z,24.70
2017-05-22T09:46:34.870Z,23.90
2017-05-22T09:49:01.919Z,24.40
2017-05-22T09:51:28.907Z,24.90
2017-05-22T09:53:55.915Z,22.80
2017-05-22T09:56:22.915Z,25.00
2017-05-22T09:58:49.905Z,22.00
2017-05-22T10:01:16.897Z,21.40
2017-05-22T10:03:43.878Z,21.60
2017-05-22T10:06:10.890Z,22.30
2017-05-22T10:08:37.891Z,22.20
2017-05-22T10:11:05.339Z,20.70
2017-05-22T10:13:32.355Z,17.80
2017-05-22T10:15:59.731Z,17.40
2017-05-22T10:18:27.034Z,15.30
2017-05-22T10:20:54.307Z,13.10
2017-05-22T10:23:21.687Z,11.10
2017-05-22T10:25:48.942Z,12.40
2017-05-22T10:28:16.421Z,11.50
2017-05-22T10:30:43.566Z,10.20
2017-05-22T10:33:10.891Z,8.90
2017-05-22T10:35:38.166Z,9.00
2017-05-22T10:38:05.593Z,8.50
2017-05-22T10:40:32.946Z,8.90
2017-05-22T10:43:00.405Z,11.00
2017-05-22T10:45:27.778Z,10.80
2017-05-22T10:47:55.320Z,11.90
2017-05-22T10:50:22.381Z,11.00
2017-05-22T10:52:49.747Z,11.50
2017-05-22T10:55:17.161Z,13.50
2017-05-22T10:57:44.555Z,15.50
2017-05-22T11:00:11.913Z,14.00
2017-05-22T11:02:39.262Z,13.30
2017-05-22T11:05:06.518Z,11.30
2017-05-22T11:07:33.769Z,11.20
2017-05-22T11:10:00.990Z,12.30
2017-05-22T11:12:28.274Z,14.60
2017-05-22T11:14:55.523Z,10.50
2017-05-22T11:17:22.805Z,11.30
2017-05-22T11:19:50.042Z,12.50
2017-05-22T11:22:17.206Z,12.50
2017-05-22T11:24:44.477Z,10.40
2017-05-22T11:27:11.705Z,12.00
2017-05-22T11:29:38.926Z,10.70
2017-05-22T11:32:06.165Z,10.90
2017-05-22T11:34:33.390Z,11.00
2017-05-22T11:37:00.622Z,11.30
2017-05-22T11:39:27.850Z,11.00
2017-05-22T11:41:55.299Z,12.70
2017-05-22T11:44:22.637Z,11.80
2017-05-22T11:46:50.087Z,12.30
2017-05-22T11:49:17.548Z,11.30
2017-05-22T11:51:44.874Z,11.30
2017-05-22T11:54:12.177Z,11.90
2017-05-22T11:56:39.386Z,9.10
2017-05-22T11:59:06.629Z,9.50
2017-05-22T12:01:33.862Z,11.00
2017-05-22T12:04:01.126Z,9.10
2017-05-22T12:06:28.427Z,9.20
2017-05-22T12:08:55.963Z,10.10
2017-05-22T12:11:23.222Z,10.80
2017-05-22T12:13:50.445Z,9.50
2017-05-22T12:16:17.629Z,9.50
2017-05-22T12:18:44.813Z,12.10
2017-05-22T12:21:12.077Z,11.00
2017-05-22T12:23:39.311Z,9.80
2017-05-22T12:26:06.586Z,9.90
2017-05-22T12:28:33.839Z,10.30
2017-05-22T12:31:01.029Z,9.60
2017-05-22T12:33:28.254Z,11.10
2017-05-22T12:35:55.469Z,12.60
2017-05-22T12:38:22.712Z,10.90
2017-05-22T12:40:49.945Z,12.30
2017-05-22T12:43:17.215Z,11.60
2017-05-22T12:45:44.437Z,12.10
2017-05-22T12:48:11.865Z,10.50
2017-05-22T12:50:39.386Z,13.80
2017-05-22T12:53:06.782Z,12.60
2017-05-22T12:55:34.223Z,12.70
2017-05-22T12:58:01.596Z,14.00
2017-05-22T13:00:28.745Z,15.00
2017-05-22T13:02:56.144Z,14.70
2017-05-22T13:05:23.558Z,16.80
2017-05-22T13:32:50.731Z,21.20
2017-05-22T13:35:17.754Z,19.70
2017-05-22T13:37:44.782Z,20.20
2017-05-22T13:40:11.856Z,20.90
2017-05-22T13:42:39.004Z,19.50
2017-05-22T13:47:34.637Z,18.60
2017-05-22T13:54:57.730Z,18.70
2017-05-22T13:57:24.813Z,19.30
2017-05-22T13:59:51.890Z,19.20
2017-05-22T14:02:19.037Z,19.30
2017-05-22T14:04:45.790Z,18.20
2017-05-22T14:07:13.136Z,19.80
2017-05-22T14:09:40.540Z,20.20
2017-05-22T14:12:07.795Z,20.20
2017-05-22T14:14:35.048Z,20.90
2017-05-22T14:17:02.179Z,20.80
2017-05-22T14:19:29.738Z,19.70
2017-05-22T14:26:53.401Z,20.90
2017-05-22T14:29:20.416Z,20.50
2017-05-22T14:31:48.315Z,21.40
2017-05-22T14:34:15.698Z,19.50
2017-05-22T14:36:42.756Z,20.20
2017-05-22T14:39:09.767Z,20.90
2017-05-22T14:41:36.849Z,20.30
2017-05-22T14:44:04.309Z,20.80
2017-05-22T14:46:31.338Z,21.40
2017-05-22T14:48:59.124Z,20.60
2017-05-22T14:51:26.193Z,21.90
2017-05-22T14:56:21.243Z,20.40
2017-05-22T14:58:49.052Z,21.40
2017-05-22T15:01:16.080Z,23.70
2017-05-22T15:03:42.735Z,21.70
2017-05-22T15:06:09.399Z,22.00
2017-05-22T15:08:36.481Z,22.90
2017-05-22T15:11:03.581Z,23.50
2017-05-22T15:13:30.603Z,22.50
2017-05-22T15:15:57.650Z,23.60
2017-05-22T15:18:24.286Z,23.30
2017-05-22T15:20:51.383Z,24.70
2017-05-22T15:23:18.119Z,24.30
2017-05-22T15:30:41.131Z,22.80
2017-05-22T15:33:08.904Z,23.60
2017-05-22T15:35:36.022Z,23.80
2017-05-22T15:38:03.032Z,23.10
2017-05-22T15:40:30.051Z,24.40
2017-05-22T15:42:57.094Z,23.90
2017-05-22T15:52:48.874Z,22.10
2017-05-22T16:05:07.870Z,22.70
2017-05-22T16:07:36.369Z,22.20
2017-05-22T16:10:03.809Z,22.20
2017-05-22T16:12:30.918Z,23.10
2017-05-22T16:22:22.724Z,23.00
2017-05-22T16:29:45.855Z,22.50
2017-05-22T16:32:12.518Z,23.10
2017-05-22T16:37:07.619Z,22.50
2017-05-22T16:39:34.642Z,23.70
2017-05-22T16:42:02.457Z,22.80
2017-05-22T16:46:57.134Z,23.10
2017-05-22T16:49:24.914Z,23.80
2017-05-22T16:54:20.829Z,23.30
2017-05-22T16:59:15.550Z,24.30
2017-05-22T17:04:10.714Z,24.30
2017-05-22T17:06:37.410Z,23.30
2017-05-22T17:09:04.831Z,23.00
2017-05-22T17:11:31.884Z,23.70
2017-05-22T17:13:59.288Z,23.30
2017-05-22T17:16:26.309Z,23.50
2017-05-22T17:18:53.362Z,24.40
2017-05-22T17:21:20.485Z,24.10
2017-05-22T17:23:47.502Z,24.90
2017-05-22T17:26:14.550Z,24.10
2017-05-22T17:31:09.958Z,24.40
2017-05-22T17:33:36.989Z,26.00
2017-05-22T17:36:04.193Z,25.70
2017-05-22T17:38:30.959Z,25.40
2017-05-22T17:40:58.414Z,25.40
2017-05-22T17:43:25.079Z,25.30
2017-05-22T17:45:52.194Z,25.20
2017-05-22T17:48:19.616Z,25.20
2017-05-22T17:53:14.674Z,26.10
2017-05-22T17:55:41.690Z,26.30
2017-05-22T18:03:04.403Z,25.20
2017-05-22T18:05:31.067Z,25.50
2017-05-22T18:07:58.091Z,26.40
2017-05-22T18:10:25.112Z,25.40
2017-05-22T18:12:52.533Z,25.50
2017-05-22T18:15:19.546Z,26.60
2017-05-22T18:17:46.208Z,25.40
2017-05-22T18:20:13.235Z,26.00
2017-05-22T18:22:39.948Z,25.20
2017-05-22T18:25:06.964Z,26.50
2017-05-22T18:27:34.078Z,26.50
2017-05-22T18:30:01.088Z,26.00
2017-05-22T18:37:24.103Z,27.20
2017-05-22T18:39:50.771Z,27.00
2017-05-22T18:44:45.804Z,27.00
2017-05-22T18:47:12.822Z,27.50
2017-05-22T18:49:39.895Z,27.00
2017-05-22T18:52:07.079Z,27.50
2017-05-22T18:54:33.856Z,26.80
2017-05-22T18:57:01.755Z,26.90
2017-05-22T18:59:28.812Z,27.50
2017-05-22T19:01:56.272Z,27.10
2017-05-22T19:04:24.555Z,27.20
2017-05-22T19:09:20.239Z,26.90
2017-05-22T19:11:47.310Z,27.70
2017-05-22T19:14:14.407Z,27.10
2017-05-22T19:16:41.727Z,28.20
2017-05-22T19:19:09.117Z,26.90
2017-05-22T19:21:37.147Z,28.40
2017-05-22T19:24:04.850Z,28.20
2017-05-22T19:26:32.567Z,28.20
2017-05-22T19:29:00.851Z,28.50
2017-05-22T19:43:49.118Z,29.40
2017-05-22T19:46:16.617Z,29.90
2017-05-22T19:53:39.310Z,30.00
2017-05-22T19:56:07.079Z,30.90
2017-05-22T20:01:02.102Z,31.50
2017-05-22T20:08:24.877Z,31.20
2017-05-22T20:10:59.543Z,31.30
2017-05-22T20:13:26.345Z,30.50
2017-05-22T20:16:00.347Z,31.70
2017-05-22T20:20:55.287Z,30.70
2017-05-22T20:23:23.089Z,30.80
2017-05-22T20:35:42.774Z,32.00
2017-05-22T20:40:37.814Z,32.20
2017-05-22T20:43:05.294Z,32.10
2017-05-22T20:45:33.138Z,32.50
2017-05-22T20:52:55.928Z,33.60
2017-05-22T21:05:15.266Z,34.50
2017-05-22T21:07:41.914Z,34.30
2017-05-22T21:10:09.308Z,34.00
2017-05-22T21:12:36.418Z,34.70
2017-05-22T21:15:03.830Z,33.80
2017-05-22T21:20:00.346Z,34.30
2017-05-22T21:22:27.438Z,35.50
2017-05-22T21:37:14.709Z,37.30
2017-05-22T21:39:42.121Z,35.80
2017-05-22T21:42:09.291Z,35.60
2017-05-22T21:44:36.721Z,35.70
2017-05-22T21:47:04.485Z,35.70
2017-05-22T21:49:31.145Z,35.10
2017-05-22T21:54:26.182Z,36.10
2017-05-22T21:56:53.594Z,35.30
2017-05-22T22:01:48.712Z,36.10
2017-05-22T22:04:16.093Z,35.80
2017-05-22T22:06:43.497Z,35.90
2017-05-22T22:11:38.182Z,36.70
2017-05-22T22:14:05.590Z,36.00
2017-05-22T22:19:00.585Z,36.80
2017-05-22T22:21:27.606Z,37.70
2017-05-22T22:23:54.625Z,37.50
2017-05-22T22:26:22.133Z,36.50
2017-05-22T22:28:49.192Z,37.40
2017-05-22T22:33:44.269Z,37.60
2017-05-22T22:36:11.434Z,38.10
2017-05-22T22:38:38.854Z,37.20
2017-05-22T22:41:05.883Z,38.20
2017-05-22T22:43:32.895Z,38.20
2017-05-22T22:45:59.907Z,36.80
2017-05-22T22:50:54.953Z,37.80
2017-05-22T22:53:21.966Z,38.90
2017-05-22T22:55:48.972Z,38.40
2017-05-22T22:58:15.636Z,37.80
2017-05-22T23:00:42.276Z,37.90
2017-05-22T23:05:37.335Z,39.00
2017-05-22T23:10:32.398Z,39.20
2017-05-22T23:13:00.178Z,38.60
2017-05-22T23:15:26.822Z,38.00
2017-05-22T23:17:53.454Z,38.40
2017-05-22T23:22:48.088Z,38.40
2017-05-22T23:25:15.103Z,37.80
2017-05-22T23:27:42.129Z,37.90
2017-05-22T23:30:09.148Z,37.40
2017-05-22T23:32:36.565Z,36.70
2017-05-22T23:37:31.574Z,35.90
2017-05-22T23:39:58.609Z,36.80
2017-05-22T23:44:53.650Z,35.50
2017-05-22T23:47:20.701Z,35.60
2017-05-22T23:49:48.170Z,34.90
2017-05-22T23:54:43.172Z,34.90
2017-05-22T23:59:38.224Z,33.90
